createdAt,value
2022-10-11T00:00:20.549Z,8.84
2022-10-11T00:01:21.516Z,8.83
2022-10-11T00:02:22.351Z,8.81
2022-10-11T00:03:23.226Z,8.80
2022-10-11T00:04:24.130Z,8.79
2022-10-11T00:05:25.003Z,8.79
2022-10-11T00:06:25.887Z,8.79
2022-10-11T00:07:26.758Z,8.77
2022-10-11T00:08:27.641Z,8.77
2022-10-11T00:09:28.524Z,8.77
2022-10-11T00:10:29.405Z,8.77
2022-10-11T00:11:30.296Z,8.77
2022-10-11T00:12:31.167Z,8.79
2022-10-11T00:13:32.100Z,8.79
2022-10-11T00:14:32.965Z,8.79
2022-10-11T00:15:33.848Z,8.80
2022-10-11T00:16:34.729Z,8.80
2022-10-11T00:17:35.612Z,8.77
2022-10-11T00:18:36.495Z,8.77
2022-10-11T00:19:37.377Z,8.74
2022-10-11T00:20:38.260Z,8.76
2022-10-11T00:21:39.133Z,8.73
2022-10-11T00:22:40.013Z,8.73
2022-10-11T00:23:40.902Z,8.68
2022-10-11T00:24:41.788Z,8.68
2022-10-11T00:25:42.671Z,8.66
2022-10-11T00:26:46.826Z,8.65
2022-10-11T00:27:44.446Z,8.63
2022-10-11T00:28:45.407Z,8.62
2022-10-11T00:29:46.230Z,8.61
2022-10-11T00:30:47.111Z,8.62
2022-10-11T00:31:47.991Z,8.61
2022-10-11T00:32:48.868Z,8.58
2022-10-11T00:33:49.741Z,8.58
2022-10-11T00:34:50.632Z,8.53
2022-10-11T00:35:51.515Z,8.53
2022-10-11T00:36:52.398Z,8.53
2022-10-11T00:37:53.270Z,8.50
2022-10-11T00:38:54.155Z,8.48
2022-10-11T00:39:55.044Z,8.47
2022-10-11T00:40:55.925Z,8.44
2022-10-11T00:41:56.826Z,8.43
2022-10-11T00:42:57.689Z,8.43
2022-10-11T00:43:58.562Z,8.41
2022-10-11T00:44:59.453Z,8.41
2022-10-11T00:46:00.338Z,8.41
2022-10-11T00:47:01.216Z,8.40
2022-10-11T00:48:02.090Z,8.38
2022-10-11T00:49:02.973Z,8.38
2022-10-11T00:50:03.858Z,8.37
2022-10-11T00:51:05.138Z,8.37
2022-10-11T00:52:05.575Z,8.33
2022-10-11T00:53:06.456Z,8.33
2022-10-11T00:54:07.339Z,8.29
2022-10-11T00:55:08.231Z,8.29
2022-10-11T00:56:09.569Z,8.29
2022-10-11T00:57:10.075Z,8.26
2022-10-11T00:58:10.927Z,8.26
2022-10-11T00:59:11.814Z,8.25
2022-10-11T01:00:12.695Z,8.22
2022-10-11T01:01:13.662Z,8.19
2022-10-11T01:02:14.486Z,8.18
2022-10-11T01:03:15.367Z,8.15
2022-10-11T01:04:16.240Z,8.12
2022-10-11T01:05:32.199Z,8.08
2022-10-11T01:06:18.898Z,8.04
2022-10-11T01:07:18.780Z,8.01
2022-10-11T01:08:19.653Z,7.98
2022-10-11T01:09:20.535Z,7.95
2022-10-11T01:10:21.428Z,7.95
2022-10-11T01:11:22.317Z,7.93
2022-10-11T01:12:23.214Z,7.93
2022-10-11T01:13:24.073Z,7.97
2022-10-11T01:14:24.958Z,7.95
2022-10-11T01:15:25.847Z,7.97
2022-10-11T01:16:26.721Z,7.97
2022-10-11T01:17:27.610Z,7.97
2022-10-11T01:18:28.488Z,7.97
2022-10-11T01:19:29.368Z,8.00
2022-10-11T01:20:30.262Z,8.00
2022-10-11T01:21:31.140Z,8.00
2022-10-11T01:22:32.024Z,8.00
2022-10-11T01:23:32.906Z,8.00
2022-10-11T01:24:33.789Z,7.97
2022-10-11T01:25:34.678Z,7.97
2022-10-11T01:26:35.551Z,7.95
2022-10-11T01:27:36.457Z,7.92
2022-10-11T01:28:37.360Z,7.90
2022-10-11T01:29:38.237Z,7.89
2022-10-11T01:30:39.120Z,7.85
2022-10-11T01:31:40.002Z,7.82
2022-10-11T01:32:40.873Z,7.82
2022-10-11T01:33:41.764Z,7.80
2022-10-11T01:34:42.642Z,7.77
2022-10-11T01:35:43.536Z,7.79
2022-10-11T01:36:44.417Z,7.77
2022-10-11T01:37:45.299Z,7.75
2022-10-11T01:38:46.181Z,7.71
2022-10-11T01:39:47.061Z,7.68
2022-10-11T01:40:47.944Z,7.64
2022-10-11T01:41:48.828Z,7.63
2022-10-11T01:42:49.730Z,7.60
2022-10-11T01:43:50.591Z,7.57
2022-10-11T01:44:51.474Z,7.57
2022-10-11T01:45:52.367Z,7.53
2022-10-11T01:46:53.238Z,7.53
2022-10-11T01:47:54.120Z,7.52
2022-10-11T01:48:54.991Z,7.50
2022-10-11T01:49:55.874Z,7.46
2022-10-11T01:50:56.767Z,7.42
2022-10-11T01:51:57.647Z,7.43
2022-10-11T01:52:58.529Z,7.43
2022-10-11T01:53:59.421Z,7.42
2022-10-11T01:55:14.831Z,7.40
2022-10-11T01:56:02.464Z,7.39
2022-10-11T01:57:02.003Z,7.37
2022-10-11T01:58:02.912Z,7.32
2022-10-11T01:59:03.770Z,7.32
2022-10-11T02:00:04.667Z,7.32
2022-10-11T02:01:05.665Z,7.31
2022-10-11T02:02:06.505Z,7.30
2022-10-11T02:03:07.377Z,7.32
2022-10-11T02:04:08.274Z,7.31
2022-10-11T02:05:09.154Z,7.32
2022-10-11T02:06:10.042Z,7.34
2022-10-11T02:07:10.918Z,7.34
2022-10-11T02:08:11.803Z,7.35
2022-10-11T02:09:12.676Z,7.34
2022-10-11T02:10:13.561Z,7.39
2022-10-11T02:11:14.463Z,7.39
2022-10-11T02:12:15.344Z,7.37
2022-10-11T02:13:16.248Z,7.39
2022-10-11T02:14:17.125Z,7.42
2022-10-11T02:15:18.001Z,7.43
2022-10-11T02:16:18.888Z,7.43
2022-10-11T02:17:19.766Z,7.46
2022-10-11T02:18:20.649Z,7.49
2022-10-11T02:19:21.532Z,7.49
2022-10-11T02:20:22.414Z,7.50
2022-10-11T02:21:23.305Z,7.52
2022-10-11T02:22:24.192Z,7.55
2022-10-11T02:23:25.072Z,7.58
2022-10-11T02:24:25.946Z,7.60
2022-10-11T02:25:26.826Z,7.60
2022-10-11T02:26:27.719Z,7.63
2022-10-11T02:27:28.600Z,7.67
2022-10-11T02:28:29.579Z,7.68
2022-10-11T02:29:30.444Z,7.68
2022-10-11T02:30:31.309Z,7.68
2022-10-11T02:31:32.215Z,7.69
2022-10-11T02:32:33.098Z,7.69
2022-10-11T02:33:33.976Z,7.71
2022-10-11T02:34:34.861Z,7.72
2022-10-11T02:35:35.745Z,7.74
2022-10-11T02:36:36.626Z,7.74
2022-10-11T02:37:37.508Z,7.74
2022-10-11T02:38:38.392Z,7.75
2022-10-11T02:39:39.281Z,7.74
2022-10-11T02:40:40.148Z,7.75
2022-10-11T02:41:41.038Z,7.77
2022-10-11T02:42:41.913Z,7.75
2022-10-11T02:43:42.832Z,7.75
2022-10-11T02:44:43.688Z,7.75
2022-10-11T02:45:44.586Z,7.74
2022-10-11T02:46:45.466Z,7.74
2022-10-11T02:47:46.344Z,7.74
2022-10-11T02:48:47.218Z,7.74
2022-10-11T02:49:48.098Z,7.71
2022-10-11T02:50:48.985Z,7.72
2022-10-11T02:51:49.876Z,7.72
2022-10-11T02:52:50.749Z,7.72
2022-10-11T02:53:51.632Z,7.74
2022-10-11T02:54:52.505Z,7.75
2022-10-11T02:55:53.388Z,7.74
2022-10-11T02:56:54.270Z,7.77
2022-10-11T02:57:55.157Z,7.77
2022-10-11T02:58:56.045Z,7.79
2022-10-11T02:59:56.907Z,7.79
2022-10-11T03:00:57.790Z,7.80
2022-10-11T03:01:58.734Z,7.79
2022-10-11T03:02:59.564Z,7.77
2022-10-11T03:04:00.447Z,7.75
2022-10-11T03:05:01.329Z,7.72
2022-10-11T03:06:02.473Z,7.71
2022-10-11T03:07:03.136Z,7.69
2022-10-11T03:08:04.017Z,7.68
2022-10-11T03:09:04.901Z,7.68
2022-10-11T03:10:05.782Z,7.69
2022-10-11T03:11:06.666Z,7.71
2022-10-11T03:12:07.559Z,7.69
2022-10-11T03:13:08.443Z,7.72
2022-10-11T03:14:09.343Z,7.72
2022-10-11T03:15:10.195Z,7.72
2022-10-11T03:16:11.349Z,7.74
2022-10-11T03:17:34.924Z,7.74
2022-10-11T03:18:13.567Z,7.74
2022-10-11T03:19:16.973Z,7.80
2022-10-11T03:20:15.208Z,7.80
2022-10-11T03:21:15.091Z,7.82
2022-10-11T03:22:15.982Z,7.85
2022-10-11T03:23:16.859Z,7.83
2022-10-11T03:24:17.738Z,7.83
2022-10-11T03:25:18.610Z,7.79
2022-10-11T03:26:19.492Z,7.75
2022-10-11T03:27:20.384Z,7.75
2022-10-11T03:28:21.350Z,7.72
2022-10-11T03:29:22.209Z,7.71
2022-10-11T03:30:23.072Z,7.71
2022-10-11T03:31:23.945Z,7.71
2022-10-11T03:32:24.835Z,7.71
2022-10-11T03:33:25.719Z,7.68
2022-10-11T03:34:26.602Z,7.69
2022-10-11T03:35:27.483Z,7.68
2022-10-11T03:36:28.366Z,7.68
2022-10-11T03:37:29.263Z,7.69
2022-10-11T03:38:30.155Z,7.69
2022-10-11T03:39:31.059Z,7.69
2022-10-11T03:40:31.947Z,7.71
2022-10-11T03:41:32.829Z,7.69
2022-10-11T03:42:33.732Z,7.69
2022-10-11T03:43:34.614Z,7.67
2022-10-11T03:44:35.515Z,7.64
2022-10-11T03:45:36.379Z,7.61
2022-10-11T03:46:37.261Z,7.60
2022-10-11T03:47:38.025Z,7.64
2022-10-11T03:48:38.906Z,7.63
2022-10-11T03:49:43.426Z,7.68
2022-10-11T03:50:40.642Z,7.68
2022-10-11T03:51:41.517Z,7.68
2022-10-11T03:52:42.408Z,7.67
2022-10-11T03:53:43.282Z,7.64
2022-10-11T03:54:44.164Z,7.68
2022-10-11T03:55:45.037Z,7.68
2022-10-11T03:56:45.918Z,7.68
2022-10-11T03:57:46.801Z,7.64
2022-10-11T03:58:47.683Z,7.64
2022-10-11T03:59:48.574Z,7.67
2022-10-11T04:00:49.447Z,7.67
2022-10-11T04:01:50.359Z,7.64
2022-10-11T04:02:51.220Z,7.69
2022-10-11T04:03:52.096Z,7.69
2022-10-11T04:04:52.976Z,7.71
2022-10-11T04:05:53.849Z,7.71
2022-10-11T04:06:54.730Z,7.71
2022-10-11T04:07:55.631Z,7.71
2022-10-11T04:08:56.512Z,7.74
2022-10-11T04:09:57.385Z,7.72
2022-10-11T04:10:58.269Z,7.71
2022-10-11T04:11:59.160Z,7.74
2022-10-11T04:13:00.050Z,7.74
2022-10-11T04:14:00.925Z,7.75
2022-10-11T04:15:01.824Z,7.72
2022-10-11T04:16:03.067Z,7.72
2022-10-11T04:17:03.610Z,7.72
2022-10-11T04:18:04.492Z,7.75
2022-10-11T04:19:05.376Z,7.72
2022-10-11T04:20:06.260Z,7.72
2022-10-11T04:21:07.143Z,7.72
2022-10-11T04:22:08.017Z,7.75
2022-10-11T04:23:08.909Z,7.77
2022-10-11T04:24:09.789Z,7.77
2022-10-11T04:25:10.672Z,7.80
2022-10-11T04:26:11.554Z,7.83
2022-10-11T04:27:12.435Z,7.83
2022-10-11T04:28:13.353Z,7.85
2022-10-11T04:29:14.234Z,7.87
2022-10-11T04:30:15.140Z,7.87
2022-10-11T04:31:15.997Z,7.89
2022-10-11T04:32:16.869Z,7.92
2022-10-11T04:33:17.762Z,7.92
2022-10-11T04:34:18.646Z,7.93
2022-10-11T04:35:19.525Z,7.93
2022-10-11T04:36:20.410Z,7.95
2022-10-11T04:37:21.292Z,7.97
2022-10-11T04:38:22.187Z,7.97
2022-10-11T04:39:23.069Z,8.00
2022-10-11T04:40:23.943Z,8.01
2022-10-11T04:41:24.823Z,8.02
2022-10-11T04:42:25.695Z,8.05
2022-10-11T04:43:26.590Z,8.05
2022-10-11T04:44:27.462Z,8.08
2022-10-11T04:45:28.364Z,8.08
2022-10-11T04:46:29.227Z,8.11
2022-10-11T04:47:30.110Z,8.08
2022-10-11T04:48:31.005Z,8.08
2022-10-11T04:49:31.905Z,8.10
2022-10-11T04:50:32.783Z,8.11
2022-10-11T04:51:33.661Z,8.12
2022-10-11T04:52:34.532Z,8.12
2022-10-11T04:53:35.426Z,8.11
2022-10-11T04:54:36.310Z,8.11
2022-10-11T04:55:37.193Z,8.08
2022-10-11T04:56:38.074Z,8.08
2022-10-11T04:57:38.957Z,8.08
2022-10-11T04:58:39.850Z,8.05
2022-10-11T04:59:40.731Z,8.05
2022-10-11T05:00:41.623Z,8.01
2022-10-11T05:01:42.562Z,8.02
2022-10-11T05:02:43.407Z,8.02
2022-10-11T05:03:44.299Z,8.02
2022-10-11T05:04:45.187Z,8.02
2022-10-11T05:05:46.066Z,8.02
2022-10-11T05:06:46.939Z,8.01
2022-10-11T05:07:47.820Z,8.02
2022-10-11T05:08:48.715Z,8.04
2022-10-11T05:09:49.597Z,8.07
2022-10-11T05:10:50.479Z,8.07
2022-10-11T05:11:51.360Z,8.10
2022-10-11T05:12:52.245Z,8.10
2022-10-11T05:13:53.135Z,8.10
2022-10-11T05:14:53.962Z,8.10
2022-10-11T05:15:54.854Z,8.12
2022-10-11T05:16:55.708Z,8.11
2022-10-11T05:17:56.590Z,8.08
2022-10-11T05:18:57.474Z,8.07
2022-10-11T05:19:58.321Z,8.07
2022-10-11T05:20:59.142Z,8.05
2022-10-11T05:21:59.970Z,8.04
2022-10-11T05:23:00.788Z,8.05
2022-10-11T05:24:01.679Z,8.05
2022-10-11T05:25:02.568Z,8.05
2022-10-11T05:26:03.939Z,8.04
2022-10-11T05:27:03.948Z,8.05
2022-10-11T05:28:04.853Z,8.05
2022-10-11T05:29:05.749Z,8.08
2022-10-11T05:30:06.589Z,8.10
2022-10-11T05:31:07.428Z,8.10
2022-10-11T05:32:08.234Z,8.12
2022-10-11T05:33:09.054Z,8.16
2022-10-11T05:34:09.945Z,8.15
2022-10-11T05:35:10.828Z,8.19
2022-10-11T05:36:11.711Z,8.22
2022-10-11T05:37:12.542Z,8.23
2022-10-11T05:38:13.369Z,8.25
2022-10-11T05:39:14.197Z,8.26
2022-10-11T05:40:15.025Z,8.26
2022-10-11T05:41:15.848Z,8.28
2022-10-11T05:42:16.672Z,8.29
2022-10-11T05:43:17.492Z,8.33
2022-10-11T05:44:18.328Z,8.36
2022-10-11T05:45:19.148Z,8.37
2022-10-11T05:46:19.996Z,8.41
2022-10-11T05:47:20.798Z,8.41
2022-10-11T05:48:21.624Z,8.45
2022-10-11T05:49:22.462Z,8.45
2022-10-11T05:50:24.485Z,8.50
2022-10-11T05:51:23.881Z,8.50
2022-10-11T05:52:24.710Z,8.50
2022-10-11T05:53:25.672Z,8.53
2022-10-11T05:54:26.438Z,8.56
2022-10-11T05:55:27.258Z,8.55
2022-10-11T05:56:28.087Z,8.58
2022-10-11T05:57:28.922Z,8.56
2022-10-11T05:58:29.751Z,8.59
2022-10-11T05:59:30.578Z,8.59
2022-10-11T06:00:31.407Z,8.58
2022-10-11T06:01:32.390Z,8.56
2022-10-11T06:02:33.217Z,8.59
2022-10-11T06:03:34.038Z,8.59
2022-10-11T06:04:34.874Z,8.59
2022-10-11T06:05:35.870Z,8.58
2022-10-11T06:06:36.624Z,8.58
2022-10-11T06:07:37.444Z,8.59
2022-10-11T06:08:38.279Z,8.59
2022-10-11T06:09:39.118Z,8.61
2022-10-11T06:10:39.955Z,8.59
2022-10-11T06:11:40.929Z,8.59
2022-10-11T06:12:41.726Z,8.61
2022-10-11T06:13:42.556Z,8.59
2022-10-11T06:14:43.392Z,8.62
2022-10-11T06:15:44.212Z,8.62
2022-10-11T06:16:45.058Z,8.63
2022-10-11T06:17:45.857Z,8.63
2022-10-11T06:18:46.685Z,8.65
2022-10-11T06:19:47.523Z,8.65
2022-10-11T06:20:48.505Z,8.66
2022-10-11T06:21:49.253Z,8.68
2022-10-11T06:22:50.087Z,8.66
2022-10-11T06:23:50.914Z,8.68
2022-10-11T06:24:51.743Z,8.68
2022-10-11T06:25:52.563Z,8.71
2022-10-11T06:26:53.390Z,8.70
2022-10-11T06:27:54.209Z,8.70
2022-10-11T06:28:55.162Z,8.73
2022-10-11T06:29:55.975Z,8.73
2022-10-11T06:30:56.802Z,8.73
2022-10-11T06:31:57.641Z,8.74
2022-10-11T06:33:03.785Z,8.76
2022-10-11T06:34:00.164Z,8.76
2022-10-11T06:34:59.993Z,8.77
2022-10-11T06:36:00.820Z,8.77
2022-10-11T06:37:01.641Z,8.77
2022-10-11T06:38:02.478Z,8.77
2022-10-11T06:39:03.304Z,8.77
2022-10-11T06:40:04.147Z,8.79
2022-10-11T06:41:04.960Z,8.79
2022-10-11T06:42:05.800Z,8.79
2022-10-11T06:43:06.627Z,8.79
2022-10-11T06:44:11.907Z,8.81
2022-10-11T06:45:09.184Z,8.83
2022-10-11T06:46:09.242Z,8.84
2022-10-11T06:47:09.550Z,8.84
2022-10-11T06:48:10.357Z,8.87
2022-10-11T06:49:11.187Z,8.87
2022-10-11T06:50:12.017Z,8.91
2022-10-11T06:51:12.835Z,8.91
2022-10-11T06:52:13.661Z,8.92
2022-10-11T06:53:14.482Z,8.95
2022-10-11T06:54:15.319Z,8.96
2022-10-11T06:55:16.139Z,8.95
2022-10-11T06:56:16.966Z,8.98
2022-10-11T06:57:17.807Z,8.98
2022-10-11T06:58:18.637Z,9.02
2022-10-11T06:59:19.465Z,9.01
2022-10-11T07:00:20.298Z,9.02
2022-10-11T07:01:21.192Z,9.05
2022-10-11T07:02:22.021Z,9.05
2022-10-11T07:03:22.822Z,9.10
2022-10-11T07:04:23.661Z,9.08
2022-10-11T07:05:24.495Z,9.10
2022-10-11T07:06:25.324Z,9.13
2022-10-11T07:07:26.143Z,9.13
2022-10-11T07:08:26.971Z,9.14
2022-10-11T07:09:27.806Z,9.17
2022-10-11T07:10:28.628Z,9.17
2022-10-11T07:11:29.453Z,9.17
2022-10-11T07:12:30.277Z,9.20
2022-10-11T07:13:31.102Z,9.23
2022-10-11T07:14:31.933Z,9.23
2022-10-11T07:15:32.764Z,9.28
2022-10-11T07:16:33.585Z,9.31
2022-10-11T07:17:34.422Z,9.32
2022-10-11T07:18:35.235Z,9.33
2022-10-11T07:19:36.072Z,9.36
2022-10-11T07:20:36.900Z,9.38
2022-10-11T07:21:37.721Z,9.39
2022-10-11T07:22:38.550Z,9.40
2022-10-11T07:23:39.373Z,9.46
2022-10-11T07:24:40.207Z,9.47
2022-10-11T07:25:41.037Z,9.48
2022-10-11T07:26:41.875Z,9.50
2022-10-11T07:27:42.694Z,9.53
2022-10-11T07:28:43.639Z,9.54
2022-10-11T07:29:44.422Z,9.58
2022-10-11T07:30:45.254Z,9.58
2022-10-11T07:31:46.079Z,9.64
2022-10-11T07:32:46.926Z,9.64
2022-10-11T07:33:47.728Z,9.69
2022-10-11T07:34:48.592Z,9.72
2022-10-11T07:35:49.408Z,9.75
2022-10-11T07:36:50.232Z,9.78
2022-10-11T07:37:51.044Z,9.83
2022-10-11T07:38:51.877Z,9.83
2022-10-11T07:39:52.702Z,9.89
2022-10-11T07:40:53.528Z,9.91
2022-10-11T07:41:54.356Z,9.94
2022-10-11T07:42:55.193Z,9.99
2022-10-11T07:43:56.019Z,10.04
2022-10-11T07:44:56.866Z,10.07
2022-10-11T07:45:57.688Z,10.08
2022-10-11T07:46:58.526Z,10.12
2022-10-11T07:47:59.385Z,10.17
2022-10-11T07:49:00.181Z,10.18
2022-10-11T07:50:01.026Z,10.22
2022-10-11T07:51:01.841Z,10.23
2022-10-11T07:52:02.662Z,10.29
2022-10-11T07:53:03.487Z,10.32
2022-10-11T07:54:07.185Z,10.33
2022-10-11T07:55:05.258Z,10.40
2022-10-11T07:56:06.631Z,10.41
2022-10-11T07:57:06.609Z,10.45
2022-10-11T07:58:07.444Z,10.48
2022-10-11T07:59:08.293Z,10.53
2022-10-11T08:00:09.089Z,10.56
2022-10-11T08:01:09.965Z,10.60
2022-10-11T08:02:10.735Z,10.71
2022-10-11T08:03:11.586Z,10.74
2022-10-11T08:04:12.397Z,10.81
2022-10-11T08:05:13.222Z,10.82
2022-10-11T08:06:14.044Z,10.86
2022-10-11T08:07:14.874Z,10.85
2022-10-11T08:08:15.689Z,10.88
2022-10-11T08:09:16.527Z,10.92
2022-10-11T08:10:17.359Z,10.92
2022-10-11T08:11:18.187Z,10.96
2022-10-11T08:12:19.015Z,10.97
2022-10-11T08:13:19.845Z,11.00
2022-10-11T08:14:20.682Z,11.03
2022-10-11T08:15:21.512Z,11.06
2022-10-11T08:16:22.342Z,11.09
2022-10-11T08:17:23.170Z,11.10
2022-10-11T08:18:24.012Z,11.11
2022-10-11T08:19:24.829Z,11.14
2022-10-11T08:20:25.660Z,11.15
2022-10-11T08:21:26.492Z,11.14
2022-10-11T08:22:27.315Z,11.17
2022-10-11T08:23:28.137Z,11.19
2022-10-11T08:24:28.971Z,11.21
2022-10-11T08:25:29.796Z,11.22
2022-10-11T08:26:30.614Z,11.24
2022-10-11T08:27:31.443Z,11.25
2022-10-11T08:28:32.318Z,11.28
2022-10-11T08:29:33.129Z,11.29
2022-10-11T08:30:33.960Z,11.33
2022-10-11T08:31:34.782Z,11.33
2022-10-11T08:32:35.608Z,11.35
2022-10-11T08:33:36.544Z,11.37
2022-10-11T08:34:37.306Z,11.39
2022-10-11T08:35:38.139Z,11.42
2022-10-11T08:36:38.977Z,11.42
2022-10-11T08:37:39.792Z,11.44
2022-10-11T08:38:40.621Z,11.47
2022-10-11T08:39:41.452Z,11.47
2022-10-11T08:40:42.284Z,11.52
2022-10-11T08:41:43.124Z,11.54
2022-10-11T08:42:43.937Z,11.55
2022-10-11T08:43:44.759Z,11.58
2022-10-11T08:45:09.610Z,11.60
2022-10-11T08:45:47.305Z,11.61
2022-10-11T08:46:47.125Z,11.62
2022-10-11T08:47:47.973Z,11.65
2022-10-11T08:48:48.828Z,11.64
2022-10-11T08:49:49.636Z,11.65
2022-10-11T08:50:50.454Z,11.69
2022-10-11T08:51:51.282Z,11.72
2022-10-11T08:52:52.104Z,11.73
2022-10-11T08:53:52.946Z,11.73
2022-10-11T08:54:53.462Z,11.76
2022-10-11T08:55:54.283Z,11.76
2022-10-11T08:56:55.112Z,11.79
2022-10-11T08:57:55.940Z,11.80
2022-10-11T08:58:56.828Z,11.82
2022-10-11T08:59:57.609Z,11.83
2022-10-11T09:00:58.440Z,11.85
2022-10-11T09:01:59.396Z,11.85
2022-10-11T09:03:09.006Z,11.86
2022-10-11T09:04:01.926Z,11.88
2022-10-11T09:05:01.723Z,11.90
2022-10-11T09:06:02.923Z,11.90
2022-10-11T09:07:05.021Z,11.90
2022-10-11T09:08:04.002Z,11.94
2022-10-11T09:09:04.840Z,11.91
2022-10-11T09:10:05.849Z,11.94
2022-10-11T09:11:06.599Z,11.95
2022-10-11T09:12:07.425Z,11.95
2022-10-11T09:13:08.256Z,11.95
2022-10-11T09:14:09.095Z,11.96
2022-10-11T09:15:09.914Z,11.98
2022-10-11T09:16:10.743Z,11.98
2022-10-11T09:17:11.563Z,11.96
2022-10-11T09:18:12.392Z,11.99
2022-10-11T09:19:13.252Z,11.99
2022-10-11T09:20:14.062Z,12.01
2022-10-11T09:21:14.881Z,12.01
2022-10-11T09:22:15.709Z,12.04
2022-10-11T09:23:16.541Z,12.04
2022-10-11T09:24:17.388Z,12.07
2022-10-11T09:25:18.221Z,12.09
2022-10-11T09:26:19.048Z,12.12
2022-10-11T09:27:25.931Z,12.12
2022-10-11T09:28:21.661Z,12.13
2022-10-11T09:29:21.474Z,12.17
2022-10-11T09:30:22.304Z,12.19
2022-10-11T09:31:23.135Z,12.21
2022-10-11T09:32:23.964Z,12.24
2022-10-11T09:33:24.785Z,12.27
2022-10-11T09:34:25.640Z,12.29
2022-10-11T09:35:26.445Z,12.31
2022-10-11T09:36:27.269Z,12.35
2022-10-11T09:37:28.098Z,12.38
2022-10-11T09:38:28.927Z,12.41
2022-10-11T09:39:29.766Z,12.45
2022-10-11T09:40:30.595Z,12.46
2022-10-11T09:41:31.415Z,12.49
2022-10-11T09:42:32.244Z,12.50
2022-10-11T09:43:33.091Z,12.52
2022-10-11T09:44:33.929Z,12.56
2022-10-11T09:45:34.757Z,12.56
2022-10-11T09:46:35.586Z,12.60
2022-10-11T09:47:36.408Z,12.62
2022-10-11T09:48:37.235Z,12.64
2022-10-11T09:49:38.081Z,12.67
2022-10-11T09:50:38.891Z,12.67
2022-10-11T09:51:39.742Z,12.70
2022-10-11T09:52:40.578Z,12.70
2022-10-11T09:53:41.405Z,12.71
2022-10-11T09:54:42.240Z,12.74
2022-10-11T09:55:43.068Z,12.77
2022-10-11T09:56:43.900Z,12.77
2022-10-11T09:57:44.738Z,12.78
2022-10-11T09:58:45.550Z,12.78
2022-10-11T09:59:46.604Z,12.79
2022-10-11T10:00:47.415Z,12.79
2022-10-11T10:01:48.274Z,12.82
2022-10-11T10:02:49.155Z,12.79
2022-10-11T10:03:49.941Z,12.79
2022-10-11T10:04:50.807Z,12.79
2022-10-11T10:05:51.616Z,12.78
2022-10-11T10:06:52.487Z,12.79
2022-10-11T10:07:53.292Z,12.79
2022-10-11T10:08:54.118Z,12.79
2022-10-11T10:09:54.950Z,12.79
2022-10-11T10:10:59.236Z,12.82
2022-10-11T10:11:56.501Z,12.79
2022-10-11T10:12:57.295Z,12.82
2022-10-11T10:13:58.124Z,12.82
2022-10-11T10:14:58.965Z,12.83
2022-10-11T10:15:59.792Z,12.85
2022-10-11T10:17:00.625Z,12.86
2022-10-11T10:18:01.516Z,12.87
2022-10-11T10:19:02.294Z,12.89
2022-10-11T10:20:03.152Z,12.89
2022-10-11T10:21:03.976Z,12.90
2022-10-11T10:22:04.801Z,12.92
2022-10-11T10:23:05.633Z,12.93
2022-10-11T10:24:06.510Z,12.96
2022-10-11T10:25:07.306Z,12.96
2022-10-11T10:26:08.770Z,12.97
2022-10-11T10:27:08.775Z,13.01
2022-10-11T10:28:09.699Z,13.04
2022-10-11T10:29:10.473Z,13.07
2022-10-11T10:30:11.361Z,13.07
2022-10-11T10:31:12.147Z,13.10
2022-10-11T10:32:14.617Z,13.11
2022-10-11T10:33:13.579Z,13.10
2022-10-11T10:34:14.408Z,13.12
2022-10-11T10:35:15.270Z,13.14
2022-10-11T10:36:16.153Z,13.14
2022-10-11T10:37:16.948Z,13.15
2022-10-11T10:38:19.120Z,13.19
2022-10-11T10:39:18.512Z,13.19
2022-10-11T10:40:19.349Z,13.22
2022-10-11T10:41:20.175Z,13.22
2022-10-11T10:42:21.097Z,13.25
2022-10-11T10:43:21.878Z,13.26
2022-10-11T10:44:22.711Z,13.28
2022-10-11T10:45:23.551Z,13.29
2022-10-11T10:46:24.380Z,13.32
2022-10-11T10:47:25.250Z,13.36
2022-10-11T10:48:26.045Z,13.36
2022-10-11T10:49:53.695Z,13.38
2022-10-11T10:50:28.621Z,13.39
2022-10-11T10:51:28.430Z,13.42
2022-10-11T10:52:29.259Z,13.44
2022-10-11T10:53:30.164Z,13.46
2022-10-11T10:54:30.941Z,13.51
2022-10-11T10:55:31.784Z,13.52
2022-10-11T10:56:32.610Z,13.57
2022-10-11T10:57:33.439Z,13.59
2022-10-11T10:58:34.279Z,13.60
2022-10-11T10:59:35.101Z,13.64
2022-10-11T11:00:35.936Z,13.66
2022-10-11T11:01:36.826Z,13.69
2022-10-11T11:02:41.647Z,13.70
2022-10-11T11:03:38.115Z,13.75
2022-10-11T11:04:38.943Z,13.75
2022-10-11T11:05:39.803Z,13.81
2022-10-11T11:06:40.616Z,13.82
2022-10-11T11:07:41.457Z,13.85
2022-10-11T11:08:42.274Z,13.89
2022-10-11T11:09:43.117Z,13.92
2022-10-11T11:10:43.948Z,13.96
2022-10-11T11:11:44.776Z,13.97
2022-10-11T11:12:45.617Z,13.97
2022-10-11T11:13:46.439Z,13.99
2022-10-11T11:14:47.267Z,14.00
2022-10-11T11:15:48.097Z,14.00
2022-10-11T11:16:48.930Z,14.03
2022-10-11T11:17:49.753Z,14.04
2022-10-11T11:18:50.579Z,14.04
2022-10-11T11:19:51.399Z,14.04
2022-10-11T11:20:52.281Z,14.06
2022-10-11T11:21:53.083Z,14.04
2022-10-11T11:22:53.910Z,14.09
2022-10-11T11:23:54.737Z,14.14
2022-10-11T11:24:55.563Z,14.15
2022-10-11T11:25:56.392Z,14.15
2022-10-11T11:26:57.220Z,14.20
2022-10-11T11:27:58.054Z,14.20
2022-10-11T11:28:58.889Z,14.22
2022-10-11T11:29:59.715Z,14.24
2022-10-11T11:31:00.548Z,14.27
2022-10-11T11:32:01.365Z,14.28
2022-10-11T11:33:02.194Z,14.32
2022-10-11T11:34:03.014Z,14.33
2022-10-11T11:35:03.852Z,14.37
2022-10-11T11:36:05.062Z,14.40
2022-10-11T11:37:05.562Z,14.42
2022-10-11T11:38:06.745Z,14.45
2022-10-11T11:39:07.023Z,14.46
2022-10-11T11:40:07.843Z,14.50
2022-10-11T11:41:08.953Z,14.52
2022-10-11T11:42:09.432Z,14.54
2022-10-11T11:43:10.251Z,14.52
2022-10-11T11:44:11.073Z,14.55
2022-10-11T11:45:11.946Z,14.57
2022-10-11T11:46:12.766Z,14.58
2022-10-11T11:47:13.594Z,14.58
2022-10-11T11:48:14.421Z,14.61
2022-10-11T11:49:15.247Z,14.61
2022-10-11T11:50:16.076Z,14.64
2022-10-11T11:51:16.923Z,14.65
2022-10-11T11:52:17.727Z,14.70
2022-10-11T11:53:18.560Z,14.73
2022-10-11T11:54:19.401Z,14.77
2022-10-11T11:55:20.256Z,14.78
2022-10-11T11:56:21.094Z,14.80
2022-10-11T11:57:21.923Z,14.80
2022-10-11T11:58:22.761Z,14.83
2022-10-11T11:59:23.605Z,14.83
2022-10-11T12:00:24.444Z,14.81
2022-10-11T12:01:28.931Z,14.84
2022-10-11T12:02:27.138Z,14.86
2022-10-11T12:03:26.964Z,14.86
2022-10-11T12:04:27.783Z,14.89
2022-10-11T12:05:28.623Z,14.92
2022-10-11T12:06:29.464Z,14.95
2022-10-11T12:07:30.277Z,14.95
2022-10-11T12:08:31.099Z,14.94
2022-10-11T12:09:31.930Z,14.96
2022-10-11T12:10:32.762Z,14.99
2022-10-11T12:11:35.556Z,14.99
2022-10-11T12:12:34.371Z,15.01
2022-10-11T12:13:35.205Z,15.03
2022-10-11T12:14:36.032Z,15.09
2022-10-11T12:15:36.872Z,15.10
2022-10-11T12:16:37.690Z,15.10
2022-10-11T12:17:38.518Z,15.11
2022-10-11T12:18:42.711Z,15.14
2022-10-11T12:19:40.071Z,15.19
2022-10-11T12:20:40.892Z,15.19
2022-10-11T12:21:41.739Z,15.23
2022-10-11T12:22:42.552Z,15.25
2022-10-11T12:23:43.381Z,15.27
2022-10-11T12:24:44.214Z,15.29
2022-10-11T12:25:45.070Z,15.31
2022-10-11T12:26:45.888Z,15.34
2022-10-11T12:27:46.742Z,15.36
2022-10-11T12:28:47.611Z,15.41
2022-10-11T12:29:48.387Z,15.43
2022-10-11T12:30:49.214Z,15.44
2022-10-11T12:31:50.053Z,15.44
2022-10-11T12:32:50.873Z,15.39
2022-10-11T12:33:51.702Z,15.43
2022-10-11T12:34:52.545Z,15.39
2022-10-11T12:35:53.380Z,15.38
2022-10-11T12:36:54.224Z,15.39
2022-10-11T12:37:55.047Z,15.38
2022-10-11T12:38:55.862Z,15.36
2022-10-11T12:39:56.695Z,15.35
2022-10-11T12:40:57.519Z,15.34
2022-10-11T12:42:00.577Z,15.31
2022-10-11T12:42:59.289Z,15.28
2022-10-11T12:44:00.123Z,15.25
2022-10-11T12:45:00.948Z,15.23
2022-10-11T12:46:01.794Z,15.20
2022-10-11T12:47:02.619Z,15.16
2022-10-11T12:48:03.460Z,15.17
2022-10-11T12:49:04.267Z,15.16
2022-10-11T12:50:05.116Z,15.16
2022-10-11T12:51:05.947Z,15.16
2022-10-11T12:52:06.797Z,15.17
2022-10-11T12:53:07.598Z,15.19
2022-10-11T12:54:26.005Z,15.20
2022-10-11T12:55:10.140Z,15.21
2022-10-11T12:56:09.982Z,15.27
2022-10-11T12:57:12.381Z,15.29
2022-10-11T12:58:11.778Z,15.29
2022-10-11T12:59:12.599Z,15.29
2022-10-11T13:00:13.426Z,15.28
2022-10-11T13:01:14.321Z,15.29
2022-10-11T13:02:15.147Z,15.29
2022-10-11T13:03:15.972Z,15.31
2022-10-11T13:04:16.801Z,15.32
2022-10-11T13:05:17.627Z,15.35
2022-10-11T13:06:18.465Z,15.36
2022-10-11T13:07:19.313Z,15.39
2022-10-11T13:08:20.113Z,15.43
2022-10-11T13:09:20.957Z,15.41
2022-10-11T13:10:21.767Z,15.43
2022-10-11T13:11:22.601Z,15.41
2022-10-11T13:12:23.430Z,15.44
2022-10-11T13:13:24.260Z,15.44
2022-10-11T13:14:25.093Z,15.46
2022-10-11T13:15:25.911Z,15.47
2022-10-11T13:16:26.754Z,15.47
2022-10-11T13:17:27.576Z,15.49
2022-10-11T13:18:28.414Z,15.46